»·PEaware :: UAL811 KSEA-KMSO

UAL811 :: KSEA-KMSO

FLIGHT INFORMATION

Flight Status: Arrived
Operator:
United Airlines
More flights by this operator :: More flights under this callsign
Pilot: Jeff S. (14581)
Aircraft: BOEING 737-200
(B732)
More flights by this aircraft type
Origin: KSEA Seattle-Tacoma Intl
United States
Destination: KMSO Missoula Intl
United States
More flights between these airports :: More routes between these airports
Route: +SEA7 NORMY J70 MLP V2 MSO
File this flight plan on PilotEdge
Remarks:
Altitude:
(Current/Filed)
31,000ft
Speed:
(Current/Filed)
450kts
Departed: 14-Aug-19 06:23 PM
Arrived: 14-Aug-19 07:23 PM
Distance/Time
Traveled:
337nm/1:00
Distance/Time
To Go:
Arrived

Flight Plot

Page will automatically refresh every two minutes.


Map Options




Map Legend


Flown Route
Filed Route
Departure Airport
Arrival Airport
Navaid (VOR, NDB)
Fix

Horizontal Profiles

Position Reports

Time Latitude Longitude Heading Altitude Ground
Speed
14-Aug-19 17:21 47.462648 -122.303867 359 437ft 0kts
14-Aug-19 17:22 47.462648 -122.303867 359 437ft 0kts
14-Aug-19 17:23 47.462648 -122.303867 359 437ft 0kts
14-Aug-19 17:24 47.462648 -122.303867 359 437ft 0kts
14-Aug-19 17:25 47.462648 -122.303867 359 437ft 0kts
14-Aug-19 17:26 47.462648 -122.303867 359 437ft 0kts
14-Aug-19 17:27 47.462648 -122.303867 359 437ft 0kts
14-Aug-19 17:28 47.462648 -122.303867 359 437ft 0kts
14-Aug-19 17:29 47.462648 -122.303867 359 437ft 0kts
14-Aug-19 17:30 47.462648 -122.303867 359 437ft 0kts
14-Aug-19 17:31 47.462648 -122.303867 359 437ft 0kts
14-Aug-19 17:32 47.462648 -122.303867 359 437ft 0kts
14-Aug-19 17:33 47.462648 -122.303867 359 437ft 0kts
14-Aug-19 17:34 47.462648 -122.303867 359 437ft 0kts
14-Aug-19 17:35 47.462648 -122.303867 359 437ft 0kts
14-Aug-19 17:36 47.462648 -122.303867 359 437ft 0kts
14-Aug-19 17:37 47.462648 -122.303867 359 437ft 0kts
14-Aug-19 17:41 47.462645 -122.302834 359 440ft 0kts
14-Aug-19 17:42 47.462645 -122.302834 359 440ft 0kts
14-Aug-19 17:43 47.462535 -122.302815 345 441ft 2kts
14-Aug-19 17:44 47.462182 -122.302158 272 444ft 2kts
14-Aug-19 17:45 47.462181 -122.302105 272 444ft 0kts
14-Aug-19 17:46 47.462181 -122.302105 272 444ft 0kts
14-Aug-19 17:47 47.462181 -122.302105 272 444ft 0kts
14-Aug-19 17:48 47.462181 -122.302105 272 444ft 0kts
14-Aug-19 17:49 47.462181 -122.302105 272 444ft 0kts
14-Aug-19 17:50 47.462181 -122.302105 272 444ft 0kts
14-Aug-19 17:51 47.462181 -122.302105 272 444ft 0kts
14-Aug-19 17:52 47.462181 -122.302105 272 444ft 0kts
14-Aug-19 17:53 47.462181 -122.302105 272 444ft 0kts
14-Aug-19 17:54 47.462181 -122.302105 272 444ft 0kts
14-Aug-19 17:55 47.462181 -122.302105 272 444ft 0kts
14-Aug-19 17:56 47.462181 -122.302105 272 444ft 0kts
14-Aug-19 17:57 47.462181 -122.302105 272 444ft 0kts
14-Aug-19 17:58 47.462181 -122.302105 272 444ft 0kts
14-Aug-19 17:59 47.462181 -122.302105 272 444ft 0kts
14-Aug-19 18:00 47.462181 -122.302105 272 444ft 0kts
14-Aug-19 18:01 47.462181 -122.302105 272 444ft 0kts
14-Aug-19 18:02 47.462181 -122.302105 272 444ft 0kts
14-Aug-19 18:03 47.462181 -122.302105 272 444ft 0kts
14-Aug-19 18:04 47.462181 -122.302105 272 444ft 0kts
14-Aug-19 18:05 47.462181 -122.302105 272 444ft 0kts
14-Aug-19 18:06 47.462181 -122.302105 272 444ft 0kts
14-Aug-19 18:07 47.462181 -122.302105 272 444ft 0kts
14-Aug-19 18:08 47.461846 -122.303897 270 442ft 13kts
14-Aug-19 18:09 47.459981 -122.306172 180 441ft 11kts
14-Aug-19 18:10 47.454794 -122.306225 181 432ft 24kts
14-Aug-19 18:11 47.447357 -122.306276 181 399ft 16kts
14-Aug-19 18:12 47.441582 -122.306351 181 382ft 24kts
14-Aug-19 18:13 47.435443 -122.305561 175 352ft 19kts
14-Aug-19 18:14 47.431799 -122.306239 240 326ft 0kts
14-Aug-19 18:15 47.431799 -122.306239 240 326ft 0kts
14-Aug-19 18:16 47.431799 -122.306239 240 326ft 0kts
14-Aug-19 18:17 47.431799 -122.306239 240 326ft 0kts
14-Aug-19 18:18 47.431799 -122.306239 240 326ft 0kts
14-Aug-19 18:19 47.431799 -122.306239 240 326ft 0kts
14-Aug-19 18:20 47.431799 -122.306239 240 326ft 0kts
14-Aug-19 18:21 47.431770 -122.306314 240 325ft 3kts
14-Aug-19 18:22 47.442115 -122.307935 359 382ft 136kts
14-Aug-19 18:23 47.496235 -122.305314 355 2912ft 221kts
14-Aug-19 18:24 47.557300 -122.295803 43 6166ft 232kts
14-Aug-19 18:25 47.550311 -122.200186 113 8832ft 252kts
14-Aug-19 18:26 47.521951 -122.104233 112 11273ft 255kts
14-Aug-19 18:27 47.494775 -122.006511 113 13169ft 268kts
14-Aug-19 18:28 47.463603 -121.892980 111 14398ft 316kts
14-Aug-19 18:29 47.437017 -121.759848 100 15938ft 348kts
14-Aug-19 18:30 47.425246 -121.611015 90 17062ft 386kts
14-Aug-19 18:31 47.422382 -121.446653 90 18744ft 400kts
14-Aug-19 18:32 47.418748 -121.276554 91 20231ft 414kts
14-Aug-19 18:33 47.420367 -121.101928 88 21497ft 427kts
14-Aug-19 18:34 47.419314 -120.921080 90 22702ft 439kts
14-Aug-19 18:35 47.416977 -120.736139 92 23841ft 449kts
14-Aug-19 18:36 47.412653 -120.547484 92 24852ft 459kts
14-Aug-19 18:37 47.407716 -120.355157 92 25782ft 468kts
14-Aug-19 18:38 47.401636 -120.158841 93 26618ft 475kts
14-Aug-19 18:39 47.395756 -119.959520 93 27371ft 483kts
14-Aug-19 18:40 47.389600 -119.761963 93 28077ft 490kts
14-Aug-19 18:41 47.382796 -119.557090 93 28809ft 497kts
14-Aug-19 18:42 47.375673 -119.349754 93 29497ft 504kts
14-Aug-19 18:43 47.383662 -119.140699 82 30076ft 509kts
14-Aug-19 18:44 47.394227 -118.928324 86 30604ft 517kts
14-Aug-19 18:45 47.401247 -118.711466 85 31117ft 527kts
14-Aug-19 18:46 47.407737 -118.490151 85 31122ft 532kts
14-Aug-19 18:47 47.413225 -118.273222 87 31132ft 531kts
14-Aug-19 18:48 47.418397 -118.053083 86 31135ft 529kts
14-Aug-19 18:49 47.423483 -117.834346 86 31139ft 528kts
14-Aug-19 18:50 47.428068 -117.617650 86 31142ft 528kts
14-Aug-19 18:51 47.429735 -117.533437 86 31142ft 528kts
14-Aug-19 18:52 47.433528 -117.326786 88 31129ft 528kts
14-Aug-19 18:53 47.436692 -117.107671 87 31117ft 527kts
14-Aug-19 18:54 47.439998 -116.888671 86 31141ft 526kts
14-Aug-19 18:55 47.451440 -116.670736 85 31141ft 526kts
14-Aug-19 18:56 47.454480 -116.452205 87 31145ft 527kts
14-Aug-19 18:57 47.455453 -116.233239 88 31134ft 528kts
14-Aug-19 18:58 47.456319 -116.012503 88 29780ft 544kts
14-Aug-19 18:59 47.456906 -115.791318 88 27857ft 520kts
14-Aug-19 19:00 47.453737 -115.580470 104 25156ft 496kts
14-Aug-19 19:01 47.397256 -115.389548 127 25149ft 510kts
14-Aug-19 19:02 47.336570 -115.190825 115 25150ft 540kts
14-Aug-19 19:03 47.259352 -114.999230 131 25146ft 545kts
14-Aug-19 19:04 47.182884 -114.816466 121 24481ft 492kts
14-Aug-19 19:05 47.117782 -114.641828 120 22524ft 475kts
14-Aug-19 19:06 47.055080 -114.473152 120 20622ft 459kts
14-Aug-19 19:07 46.994360 -114.311115 121 18804ft 441kts
14-Aug-19 19:08 46.935356 -114.155447 120 16987ft 424kts
14-Aug-19 19:10 46.857282 -114.040693 172 15131ft 392kts
14-Aug-19 19:11 46.750522 -114.044552 190 13123ft 367kts
14-Aug-19 19:12 46.648254 -114.052617 181 10857ft 356kts
14-Aug-19 19:13 46.570108 -113.976904 140 9981ft 329kts
14-Aug-19 19:14 46.504865 -113.986860 255 10005ft 222kts
14-Aug-19 19:15 46.541779 -114.038488 347 9081ft 220kts
14-Aug-19 19:16 46.601926 -114.049311 350 8091ft 202kts
14-Aug-19 19:17 46.656631 -114.056612 350 8104ft 190kts
14-Aug-19 19:18 46.711037 -114.063455 351 8112ft 198kts
14-Aug-19 19:19 46.763254 -114.068890 351 7579ft 193kts
14-Aug-19 19:20 46.815460 -114.054654 15 7008ft 193kts
14-Aug-19 19:21 46.863733 -114.031291 0 5406ft 160kts
14-Aug-19 19:22 46.896880 -114.058231 308 3542ft 135kts
14-Aug-19 19:23 46.916852 -114.092887 310 3201ft 28kts
14-Aug-19 19:24 46.918646 -114.092299 129 3203ft 7kts
14-Aug-19 19:25 46.919045 -114.088860 38 3205ft 11kts
14-Aug-19 19:26 46.920028 -114.085298 101 3208ft 9kts
14-Aug-19 19:27 46.919676 -114.085023 167 3208ft 0kts
14-Aug-19 19:28 46.919676 -114.085023 167 3208ft 0kts
14-Aug-19 19:29 46.919676 -114.085023 167 3208ft 0kts
14-Aug-19 19:30 46.919676 -114.085023 167 3208ft 0kts

Navigation Log

Ident Type
Flight plan parsing failed, navigation log unavailable